createdAt,value
2023-02-11T00:29:40.686Z,-3.72
2023-02-11T00:59:40.661Z,-4.1
2023-02-11T01:29:41.114Z,-4.18
2023-02-11T01:59:40.529Z,-4.58
2023-02-11T02:29:40.828Z,-4.77
2023-02-11T02:59:41.070Z,-4.73
2023-02-11T03:29:41.006Z,-5.09
2023-02-11T03:59:40.543Z,-5.26
2023-02-11T04:29:40.936Z,-5.39
2023-02-11T04:59:40.649Z,-5.52
2023-02-11T05:29:40.693Z,-5.6
2023-02-11T05:59:40.760Z,-5.8
2023-02-11T06:29:40.949Z,-5.97
2023-02-11T06:59:40.820Z,-5.98
2023-02-11T07:29:41.002Z,-5.44
2023-02-11T07:59:40.442Z,-4.38
2023-02-11T08:29:42.294Z,-2.81
2023-02-11T08:59:41.266Z,-1.57
2023-02-11T09:29:40.449Z,0.53
2023-02-11T09:59:41.046Z,3.16
2023-02-11T10:29:40.664Z,5.79
2023-02-11T10:59:40.565Z,6.15
2023-02-11T11:29:40.727Z,6.28
2023-02-11T11:59:40.662Z,7.35
2023-02-11T12:29:40.508Z,8.44
2023-02-11T12:59:40.753Z,9.05
2023-02-11T13:29:40.636Z,8.8
2023-02-11T13:59:40.331Z,8.69
2023-02-11T14:29:42.640Z,8.44
2023-02-11T14:59:40.422Z,8.65
2023-02-11T15:29:40.254Z,8.19
2023-02-11T15:59:40.608Z,7.73
2023-02-11T16:29:40.375Z,6.99
2023-02-11T16:59:40.069Z,5.17
2023-02-11T17:29:40.091Z,3.68
2023-02-11T18:29:39.804Z,2.45
2023-02-11T18:59:40.147Z,0.69
2023-02-11T19:29:39.971Z,-0.1
2023-02-11T19:59:40.177Z,-0.46
2023-02-11T20:29:40.057Z,-0.9
2023-02-11T21:29:49.252Z,-1.39
2023-02-11T22:29:39.923Z,-1.69
2023-02-11T22:59:40.070Z,-2.29
2023-02-11T23:29:40.029Z,-2.38
2023-02-11T23:59:39.616Z,-2.51
